Brooklyn Center, Minnesota
Current Conditions -  °F | °C
As of 4:53 PM on Thursday 23 Oct 2014 (Local Time) from KMIC Reporting Station
Clear Clear  
Wind Chill: 67°   Ceiling: Unl
Heat Index: 67°   Visibility: 10mi
Dew Point: 47°   Wind: 5mph
Humidity: 49%   Direction: 230°SW
Pressure: 29.93"   Gusts: NA
Location:  45.07°N, 93.31°W
Report Text: KMIC 232153Z 23004KT 10SM CLR 19/08 A2993 RMK AO2 SLP137 T01940083
Loading
Personal Weather Stations






























Interactive Weather Map
Tropical Storm Tracking
New forecast layout! Learn more

10-Day Weather Forecast

Advertisements
Track Severe Weather on mobile